CDT,Max TemperatureF,Mean TemperatureF,Min TemperatureF,Max Dew PointF,MeanDew PointF,Min DewpointF,Max Humidity, Mean Humidity, Min Humidity, Max Sea Level PressureIn, Mean Sea Level PressureIn, Min Sea Level PressureIn, Max VisibilityMiles, Mean VisibilityMiles, Min VisibilityMiles, Max Wind SpeedMPH, Mean Wind SpeedMPH, Max Gust SpeedMPH,PrecipitationIn, CloudCover, Events, WindDirDegrees
2014-4-1,53,39,24,28,24,20,81,58,35,30.16,30.06,29.98,10,10,10,15,5,20,0.00,2,,56
2014-4-2,48,44,40,48,43,28,100,77,53,29.98,29.81,29.69,10,4,1,18,10,22,0.51,8,Rain-Thunderstorm,55
2014-4-3,50,44,37,49,43,34,100,93,85,29.92,29.70,29.61,10,4,1,16,8,25,0.01,8,Rain,354
2014-4-4,49,39,28,34,29,26,92,69,46,30.20,30.09,29.90,10,10,8,16,7,25,0.00,4,Rain,324
2014-4-5,66,46,26,33,29,25,92,59,26,30.18,30.08,29.97,10,7,2,21,7,28,0.00,0,,159
2014-4-6,60,53,45,46,39,30,86,64,41,30.01,29.91,29.83,10,5,3,15,4,21,0.01,8,Rain,127
2014-4-7,65,55,44,45,40,35,93,66,39,29.95,29.84,29.78,10,7,3,17,5,26,0.01,7,Rain-Thunderstorm,334
2014-4-8,63,48,33,35,26,14,79,48,16,30.14,30.06,29.97,10,10,10,21,7,32,0.00,0,,354
2014-4-9,83,56,28,39,32,24,85,53,20,30.11,29.91,29.68,10,10,10,31,13,39,0.00,0,,209
2014-4-10,68,56,44,41,35,30,65,46,26,30.01,29.85,29.62,10,10,10,26,12,34,0.00,0,,45
2014-4-11,79,59,38,47,36,26,79,49,19,30.05,29.94,29.83,10,5,1,16,6,20,0.00,4,,150
2014-4-12,89,74,59,59,55,47,93,62,31,29.84,29.63,29.43,10,8,2,29,16,42,0.00,1,Thunderstorm,197
2014-4-13,74,55,35,63,47,30,96,81,66,29.90,29.61,29.45,10,9,2,24,12,36,0.08,7,Rain-Snow-Thunderstorm,34
2014-4-14,48,39,29,30,23,17,75,52,29,30.25,30.11,29.94,10,8,1,21,10,32,0.01,6,Snow,356
2014-4-15,62,42,22,31,23,20,96,58,20,30.25,30.11,29.91,10,10,5,22,8,29,0.00,0,,197
2014-4-16,72,56,40,39,29,24,62,42,22,30.12,29.86,29.75,10,10,7,38,18,50,0.00,1,,209
2014-4-17,57,46,34,33,30,27,70,53,36,30.35,30.27,30.16,10,7,2,14,5,19,0.00,4,,32
2014-4-18,71,50,29,41,34,28,92,63,34,30.33,30.24,30.09,10,4,1,22,7,27,0.00,2,,154
2014-4-19,81,66,51,46,44,39,68,49,30,30.10,30.03,29.96,10,10,9,32,14,42,0.00,0,,182
2014-4-20,80,71,62,59,53,46,84,62,39,30.02,29.99,29.95,10,10,6,24,11,30,T,2,Rain,207
2014-4-21,79,65,51,57,47,27,86,53,19,30.10,29.99,29.94,10,10,6,20,7,27,0.02,3,Rain,336
2014-4-22,74,60,45,35,32,28,60,41,22,30.16,30.07,29.94,10,10,7,14,6,22,0.00,0,,68
2014-4-23,87,71,54,53,43,36,55,39,23,29.95,29.74,29.46,10,10,10,32,17,46,0.02,4,Rain,158
2014-4-24,73,58,42,57,51,41,96,69,42,29.88,29.69,29.46,10,7,1,23,7,32,0.89,6,Rain-Thunderstorm,331
2014-4-25,82,60,37,44,42,36,100,62,24,29.91,29.84,29.73,10,10,10,23,9,29,0.00,0,,208
2014-4-26,83,70,57,62,52,43,68,55,41,29.73,29.58,29.44,10,10,10,31,16,39,0.00,0,,166
2014-4-27,78,68,58,66,58,41,90,59,28,29.46,29.33,29.17,10,7,0,30,14,38,0.61,5,Fog-Rain-Thunderstorm,178
2014-4-28,61,53,45,46,42,39,86,71,55,29.47,29.36,29.24,10,9,2,24,14,31,0.07,7,Rain,253
2014-4-29,47,45,43,43,40,37,96,84,71,29.95,29.66,29.46,10,9,2,20,10,28,0.32,8,Rain,303
2014-4-30,58,50,42,40,33,26,89,60,30,30.05,30.00,29.94,10,10,10,17,9,27,T,6,,310